Devonshire, New Jersey
Current Conditions -  °F | °C
As of 4:54 AM on Friday 31 Oct 2014 (Local Time) from KACY Reporting Station
Clear Clear  
Wind Chill: 31°   Ceiling: Unl
Heat Index: 35°   Visibility: 10mi
Dew Point: 32°   Wind: 5mph
Humidity: 89%   Direction: 330°NNW
Pressure: 30"   Gusts: NA
Location:  39.5436°N, 74.5919°W
Report Text: KACY 310854Z 33004KT 10SM CLR 02/00 A3000 RMK AO2 SLP160 T00170000 55007
Loading
Personal Weather Stations






























Interactive Weather Map New forecast layout! Learn more

10-Day Weather Forecast

Advertisements
Track Severe Weather on mobile